createdAt,value
2017-07-27T00:00:52.674Z,71.10
2017-07-27T00:03:20.727Z,72.10
2017-07-27T00:05:49.559Z,71.90
2017-07-27T00:08:17.613Z,71.80
2017-07-27T00:10:45.686Z,71.90
2017-07-27T00:13:13.743Z,72.20
2017-07-27T00:15:41.804Z,72.40
2017-07-27T00:18:09.847Z,73.10
2017-07-27T00:20:37.901Z,73.20
2017-07-27T00:23:05.988Z,73.60
2017-07-27T00:25:34.031Z,74.20
2017-07-27T00:28:02.098Z,74.50
2017-07-27T00:30:30.174Z,76.20
2017-07-27T00:32:58.231Z,77.40
2017-07-27T00:35:26.311Z,79.00
2017-07-27T00:37:54.382Z,80.80
2017-07-27T00:40:22.458Z,81.70
2017-07-27T00:42:50.515Z,83.20
2017-07-27T00:45:18.598Z,84.40
2017-07-27T00:47:46.670Z,85.30
2017-07-27T00:50:14.730Z,85.30
2017-07-27T00:52:42.822Z,85.60
2017-07-27T00:55:10.896Z,85.70
2017-07-27T00:57:38.945Z,85.10
2017-07-27T01:00:07.043Z,84.60
2017-07-27T01:02:35.112Z,84.50
2017-07-27T01:05:03.178Z,84.10
2017-07-27T01:07:31.271Z,84.60
2017-07-27T01:09:59.353Z,85.20
2017-07-27T01:12:27.419Z,84.90
2017-07-27T01:14:55.503Z,84.00
2017-07-27T01:17:24.347Z,84.20
2017-07-27T01:19:52.412Z,84.10
2017-07-27T01:22:20.485Z,84.90
2017-07-27T01:24:48.570Z,84.70
2017-07-27T01:27:16.636Z,84.70
2017-07-27T01:29:44.707Z,84.40
2017-07-27T01:32:12.777Z,84.20
2017-07-27T01:34:40.839Z,84.80
2017-07-27T01:37:08.927Z,85.50
2017-07-27T01:39:37.001Z,85.40
2017-07-27T01:42:05.078Z,85.80
2017-07-27T01:44:33.157Z,85.50
2017-07-27T01:47:01.202Z,85.00
2017-07-27T01:49:30.062Z,85.90
2017-07-27T01:51:58.126Z,85.00
2017-07-27T01:54:26.213Z,85.50
2017-07-27T01:56:55.043Z,86.50
2017-07-27T01:59:23.108Z,86.20
2017-07-27T02:01:51.202Z,86.40
2017-07-27T02:04:19.270Z,87.00
2017-07-27T02:06:47.334Z,86.60
2017-07-27T02:09:15.421Z,86.00
2017-07-27T02:11:43.490Z,87.40
2017-07-27T02:14:11.560Z,88.30
2017-07-27T02:16:39.632Z,88.60
2017-07-27T02:19:07.708Z,88.20
2017-07-27T02:21:35.770Z,87.80
2017-07-27T02:24:03.830Z,88.60
2017-07-27T02:26:31.890Z,90.30
2017-07-27T02:28:59.958Z,91.30
2017-07-27T02:31:28.027Z,92.70
2017-07-27T02:33:56.111Z,93.80
2017-07-27T02:36:24.175Z,94.60
2017-07-27T02:38:52.251Z,95.70
2017-07-27T02:41:20.339Z,96.50
2017-07-27T02:43:48.405Z,96.60
2017-07-27T02:46:16.461Z,97.00
2017-07-27T02:48:44.539Z,97.80
2017-07-27T02:51:12.607Z,97.90
2017-07-27T02:53:40.658Z,98.00
2017-07-27T02:56:08.736Z,98.50
2017-07-27T02:58:36.798Z,99.00
2017-07-27T03:01:04.878Z,98.80
2017-07-27T03:03:32.938Z,98.90
2017-07-27T03:06:01.019Z,99.00
2017-07-27T03:08:29.101Z,98.70
2017-07-27T03:10:57.167Z,98.50
2017-07-27T03:13:25.239Z,98.40
2017-07-27T03:15:53.303Z,98.10
2017-07-27T03:18:21.387Z,98.00
2017-07-27T03:20:49.442Z,98.10
2017-07-27T03:23:17.521Z,97.60
2017-07-27T03:25:45.593Z,97.90
2017-07-27T03:28:13.656Z,97.90
2017-07-27T03:30:41.717Z,97.80
2017-07-27T03:33:09.791Z,97.70
2017-07-27T03:35:37.879Z,97.60
2017-07-27T03:38:05.939Z,97.30
2017-07-27T03:40:33.997Z,97.50
2017-07-27T03:43:02.070Z,97.90
2017-07-27T03:45:30.142Z,97.80
2017-07-27T03:47:58.231Z,97.60
2017-07-27T03:50:26.296Z,97.70
2017-07-27T03:52:54.366Z,97.30
2017-07-27T03:55:22.426Z,97.00
2017-07-27T03:57:50.500Z,96.90
2017-07-27T04:00:18.578Z,96.80
2017-07-27T04:02:46.639Z,96.80
2017-07-27T04:05:14.730Z,96.50
2017-07-27T04:07:42.791Z,96.40
2017-07-27T04:10:10.855Z,96.50
2017-07-27T04:12:38.932Z,96.10
2017-07-27T04:15:06.996Z,95.70
2017-07-27T04:17:35.071Z,96.60
2017-07-27T04:20:03.135Z,96.90
2017-07-27T04:22:31.202Z,97.10
2017-07-27T04:24:59.285Z,96.70
2017-07-27T04:27:27.358Z,97.10
2017-07-27T04:29:55.430Z,97.20
2017-07-27T04:32:23.491Z,97.00
2017-07-27T04:34:51.565Z,97.00
2017-07-27T04:37:19.626Z,97.30
2017-07-27T04:39:47.695Z,97.20
2017-07-27T04:42:15.742Z,97.20
2017-07-27T04:44:44.587Z,97.00
2017-07-27T04:47:12.636Z,97.00
2017-07-27T04:49:40.700Z,97.20
2017-07-27T04:52:08.757Z,96.80
2017-07-27T04:54:36.828Z,96.30
2017-07-27T04:57:16.847Z,96.20
2017-07-27T04:59:44.898Z,95.70
2017-07-27T05:02:12.971Z,95.80
2017-07-27T05:04:41.029Z,95.90
2017-07-27T05:07:09.088Z,95.90
2017-07-27T05:09:37.158Z,95.90
2017-07-27T05:12:05.213Z,95.30
2017-07-27T05:14:33.274Z,96.00
2017-07-27T05:17:01.336Z,96.10
2017-07-27T05:19:29.377Z,96.30
2017-07-27T05:21:57.479Z,96.20
2017-07-27T05:24:25.529Z,96.30
2017-07-27T05:26:53.570Z,96.30
2017-07-27T05:29:21.640Z,95.80
2017-07-27T05:31:49.692Z,95.90
2017-07-27T05:34:18.530Z,95.60
2017-07-27T05:36:46.570Z,95.60
2017-07-27T05:39:14.645Z,95.50
2017-07-27T05:41:42.710Z,95.70
2017-07-27T05:44:10.764Z,95.70
2017-07-27T05:46:39.600Z,96.20
2017-07-27T05:49:07.671Z,96.20
2017-07-27T05:51:35.738Z,96.10
2017-07-27T05:54:03.799Z,96.20
2017-07-27T05:56:31.870Z,96.80
2017-07-27T05:59:00.154Z,96.30
2017-07-27T06:01:28.208Z,95.20
2017-07-27T06:03:56.278Z,95.10
2017-07-27T06:06:24.328Z,94.70
2017-07-27T06:08:53.159Z,95.40
2017-07-27T06:11:21.208Z,95.30
2017-07-27T06:13:49.280Z,95.20
2017-07-27T06:16:17.326Z,95.40
2017-07-27T06:18:45.394Z,94.90
2017-07-27T06:21:14.220Z,94.60
2017-07-27T06:23:42.278Z,94.50
2017-07-27T06:26:10.354Z,93.90
2017-07-27T06:28:38.399Z,93.70
2017-07-27T06:31:06.482Z,93.50
2017-07-27T15:20:21.366Z,53.60
2017-07-27T15:22:55.818Z,54.10
2017-07-27T15:25:29.550Z,54.10
2017-07-27T15:28:03.364Z,54.30
2017-07-27T15:30:37.068Z,53.40
2017-07-27T15:33:11.587Z,52.20
2017-07-27T15:35:46.067Z,49.20
2017-07-27T15:38:20.410Z,50.20
2017-07-27T15:40:55.326Z,50.10
2017-07-27T15:43:29.160Z,49.40
2017-07-27T15:46:02.831Z,50.80
2017-07-27T15:48:36.772Z,50.80
2017-07-27T15:51:11.354Z,50.20
2017-07-27T15:53:45.256Z,50.10
2017-07-27T15:56:19.802Z,51.00
2017-07-27T15:58:53.374Z,50.90
2017-07-27T16:01:27.152Z,51.10
2017-07-27T16:04:00.796Z,51.20
2017-07-27T16:06:34.388Z,51.60
2017-07-27T16:09:07.983Z,51.80
2017-07-27T16:11:41.748Z,52.60
2017-07-27T16:14:15.322Z,52.10
2017-07-27T16:16:48.928Z,52.70
2017-07-27T16:19:23.563Z,53.50
2017-07-27T16:21:57.168Z,53.40
2017-07-27T16:24:30.843Z,53.70
2017-07-27T16:27:04.427Z,54.50
2017-07-27T16:29:38.251Z,55.00
2017-07-27T16:32:11.849Z,53.30
2017-07-27T16:34:45.475Z,53.80
2017-07-27T16:37:19.195Z,52.90
2017-07-27T16:39:52.897Z,53.00
2017-07-27T16:42:27.518Z,54.00
2017-07-27T16:45:02.091Z,53.60
2017-07-27T16:47:35.715Z,53.60
2017-07-27T16:50:10.068Z,54.30
2017-07-27T16:52:43.813Z,54.30
2017-07-27T16:55:17.339Z,53.80
2017-07-27T16:57:51.038Z,53.30
2017-07-27T17:00:24.835Z,53.30
2017-07-27T17:02:58.638Z,52.60
2017-07-27T17:05:32.359Z,52.50
2017-07-27T17:08:05.951Z,52.70
2017-07-27T17:10:40.271Z,52.40
2017-07-27T17:13:13.970Z,52.30
2017-07-27T17:15:47.712Z,52.30
2017-07-27T17:18:22.294Z,51.20
2017-07-27T17:20:56.040Z,51.20
2017-07-27T17:23:29.782Z,51.20
2017-07-27T17:26:04.103Z,49.70
2017-07-27T17:28:37.707Z,49.60
2017-07-27T17:31:12.246Z,50.40
2017-07-27T17:33:46.682Z,49.80
2017-07-27T17:36:20.243Z,49.70
2017-07-27T17:38:53.868Z,49.80
2017-07-27T17:41:28.393Z,50.50
2017-07-27T17:44:02.789Z,50.80
2017-07-27T17:46:36.412Z,50.80
2017-07-27T17:49:10.922Z,51.80
2017-07-27T17:51:44.523Z,51.80
2017-07-27T17:54:18.115Z,51.80
2017-07-27T17:56:52.783Z,52.70
2017-07-27T17:59:26.508Z,52.10
2017-07-27T18:02:00.191Z,51.60
2017-07-27T18:04:33.759Z,52.30
2017-07-27T18:07:07.365Z,52.50
2017-07-27T18:09:40.956Z,52.50
2017-07-27T18:12:14.667Z,52.80
2017-07-27T18:14:48.288Z,53.10
2017-07-27T18:17:22.096Z,53.10
2017-07-27T18:19:56.472Z,53.10
2017-07-27T18:22:30.303Z,53.10
2017-07-27T18:25:04.018Z,52.90
2017-07-27T18:27:37.698Z,52.80
2017-07-27T18:30:12.326Z,53.40
2017-07-27T18:32:46.022Z,53.30
2017-07-27T18:35:19.813Z,53.90
2017-07-27T18:37:54.712Z,53.70
2017-07-27T18:40:28.485Z,53.70
2017-07-27T18:43:02.243Z,54.10
2017-07-27T18:45:35.814Z,53.30
2017-07-27T18:48:09.496Z,53.50
2017-07-27T18:50:43.161Z,53.90
2017-07-27T18:53:16.770Z,54.00
2017-07-27T18:55:50.378Z,54.20
2017-07-27T18:58:23.972Z,54.40
2017-07-27T19:00:57.572Z,54.60
2017-07-27T19:03:31.199Z,54.30
2017-07-27T19:06:05.797Z,55.00
2017-07-27T19:08:39.382Z,54.90
2017-07-27T19:11:13.034Z,55.50
2017-07-27T19:13:46.690Z,55.70
2017-07-27T19:16:20.367Z,56.60
2017-07-27T19:18:53.941Z,57.50
2017-07-27T19:21:27.505Z,57.60
2017-07-27T19:24:02.044Z,57.60
2017-07-27T19:26:35.864Z,57.60
2017-07-27T19:29:09.479Z,58.50
2017-07-27T19:31:43.078Z,59.00
2017-07-27T19:34:16.789Z,59.00
2017-07-27T19:36:51.277Z,59.70
2017-07-27T19:39:24.880Z,59.70
2017-07-27T19:41:58.617Z,59.50
2017-07-27T19:44:32.306Z,59.50
2017-07-27T19:47:05.935Z,59.60
2017-07-27T19:49:39.623Z,59.40
2017-07-27T19:52:13.191Z,59.50
2017-07-27T19:54:46.940Z,60.10
2017-07-27T19:57:20.575Z,60.20
2017-07-27T19:59:54.179Z,60.30
2017-07-27T20:02:27.928Z,59.90
2017-07-27T20:05:01.612Z,59.50
2017-07-27T20:07:36.948Z,61.70
2017-07-27T20:10:10.550Z,60.90
2017-07-27T20:12:44.153Z,61.40
2017-07-27T20:15:17.738Z,61.60
2017-07-27T20:17:52.286Z,63.20
2017-07-27T20:20:25.970Z,62.20
2017-07-27T20:23:00.418Z,61.80
2017-07-27T20:25:34.014Z,61.60
2017-07-27T20:28:07.631Z,61.80
2017-07-27T20:30:41.242Z,61.80
2017-07-27T20:33:14.947Z,62.50
2017-07-27T20:35:49.334Z,62.30
2017-07-27T20:38:22.915Z,62.20
2017-07-27T20:40:57.276Z,62.00
2017-07-27T20:43:30.857Z,62.00
2017-07-27T20:46:04.374Z,62.50
2017-07-27T20:48:38.064Z,63.00
2017-07-27T20:51:11.648Z,62.80
2017-07-27T20:53:45.275Z,62.70
2017-07-27T20:56:18.979Z,61.90
2017-07-27T20:58:52.671Z,62.50
2017-07-27T21:01:26.253Z,62.70
2017-07-27T21:04:00.012Z,63.00
2017-07-27T21:06:33.668Z,63.30
2017-07-27T21:09:07.338Z,63.60
2017-07-27T21:11:41.890Z,64.70
2017-07-27T21:14:15.505Z,64.70
2017-07-27T21:16:49.127Z,65.00
2017-07-27T21:19:22.831Z,65.10
2017-07-27T21:21:57.382Z,64.90
2017-07-27T21:24:31.250Z,64.80
2017-07-27T21:27:04.987Z,64.80
2017-07-27T21:29:39.393Z,64.90
2017-07-27T21:32:13.015Z,64.50
2017-07-27T21:34:46.694Z,64.40
2017-07-27T21:37:20.296Z,64.70
2017-07-27T21:39:53.915Z,65.70
2017-07-27T21:42:28.591Z,66.40
2017-07-27T21:45:03.150Z,66.10
2017-07-27T21:47:36.695Z,66.10
2017-07-27T21:50:10.481Z,65.90
2017-07-27T21:52:44.199Z,66.30
2017-07-27T21:55:17.975Z,66.60
2017-07-27T21:57:51.687Z,66.50
2017-07-27T22:00:25.392Z,66.50
2017-07-27T22:03:00.018Z,67.10
2017-07-27T22:05:33.649Z,67.00
2017-07-27T22:08:07.323Z,67.20
2017-07-27T22:10:40.905Z,67.90
2017-07-27T22:13:14.503Z,67.40
2017-07-27T22:15:48.244Z,67.40
2017-07-27T22:18:21.985Z,67.60
2017-07-27T22:20:55.714Z,67.90
2017-07-27T22:23:29.370Z,68.40
2017-07-27T22:26:03.067Z,69.00
2017-07-27T22:28:36.664Z,69.60
2017-07-27T22:31:10.279Z,69.90
2017-07-27T22:33:43.997Z,69.70
2017-07-27T22:36:18.327Z,69.90
2017-07-27T22:38:52.160Z,69.90
2017-07-27T22:41:25.826Z,70.30
2017-07-27T22:43:59.504Z,70.30
2017-07-27T22:46:33.393Z,70.30
2017-07-27T22:49:06.960Z,69.90
2017-07-27T22:51:40.659Z,70.40
2017-07-27T22:54:15.150Z,70.40
2017-07-27T22:56:48.774Z,70.40
2017-07-27T22:59:22.378Z,70.40
2017-07-27T23:01:55.931Z,70.50
2017-07-27T23:04:30.477Z,71.00
2017-07-27T23:07:04.165Z,71.00
2017-07-27T23:09:38.590Z,71.10
2017-07-27T23:12:12.388Z,71.10
2017-07-27T23:14:45.959Z,71.40
2017-07-27T23:17:19.642Z,71.20
2017-07-27T23:19:53.360Z,71.90
2017-07-27T23:22:27.002Z,71.60
2017-07-27T23:25:01.415Z,72.60
2017-07-27T23:27:35.002Z,72.60
2017-07-27T23:30:08.604Z,73.30
2017-07-27T23:32:42.187Z,73.50
2017-07-27T23:35:16.735Z,73.10
2017-07-27T23:37:50.323Z,73.00
2017-07-27T23:40:23.951Z,73.40
2017-07-27T23:42:57.637Z,73.50
2017-07-27T23:45:31.239Z,73.40
2017-07-27T23:48:04.831Z,73.20
2017-07-27T23:50:38.599Z,73.30
2017-07-27T23:53:12.966Z,73.20
2017-07-27T23:55:46.716Z,73.10
2017-07-27T23:58:20.346Z,73.60
